sensor_id;sensor_type;location;lat;lon;timestamp;pressure;altitude;pressure_sealevel;temperature;humidity
60820;BME280;46641;48.904;9.126;2024-03-25T00:04:50;97844.91;;;12.37;62.25
60820;BME280;46641;48.904;9.126;2024-03-25T00:09:40;97845.25;;;12.34;62.31
60820;BME280;46641;48.904;9.126;2024-03-25T00:14:30;97840.66;;;12.36;63.13
60820;BME280;46641;48.904;9.126;2024-03-25T00:19:20;97840.47;;;12.38;63.06
60820;BME280;46641;48.904;9.126;2024-03-25T00:24:11;97843.63;;;12.33;62.15
60820;BME280;46641;48.904;9.126;2024-03-25T00:29:02;97831.06;;;12.29;62.02
60820;BME280;46641;48.904;9.126;2024-03-25T00:33:52;97832.69;;;12.30;62.74
60820;BME280;46641;48.904;9.126;2024-03-25T00:38:42;97828.59;;;12.27;62.88
60820;BME280;46641;48.904;9.126;2024-03-25T00:43:33;97838.47;;;12.25;62.49
60820;BME280;46641;48.904;9.126;2024-03-25T00:48:23;97837.81;;;12.23;63.53
60820;BME280;46641;48.904;9.126;2024-03-25T00:53:14;97828.25;;;12.30;64.19
60820;BME280;46641;48.904;9.126;2024-03-25T00:58:04;97829.97;;;12.38;64.46
60820;BME280;46641;48.904;9.126;2024-03-25T01:02:55;97833.72;;;12.44;64.11
60820;BME280;46641;48.904;9.126;2024-03-25T01:07:45;97830.94;;;12.45;64.44
60820;BME280;46641;48.904;9.126;2024-03-25T01:12:36;97826.16;;;12.49;64.45
60820;BME280;46641;48.904;9.126;2024-03-25T01:17:26;97823.69;;;12.47;64.29
60820;BME280;46641;48.904;9.126;2024-03-25T01:22:16;97812.22;;;12.48;64.30
60820;BME280;46641;48.904;9.126;2024-03-25T01:27:07;97813.84;;;12.49;63.97
60820;BME280;46641;48.904;9.126;2024-03-25T01:31:57;97810.75;;;12.46;62.82
60820;BME280;46641;48.904;9.126;2024-03-25T01:36:49;97810.63;;;12.39;63.54
60820;BME280;46641;48.904;9.126;2024-03-25T01:41:39;97807.38;;;12.37;63.63
60820;BME280;46641;48.904;9.126;2024-03-25T01:46:29;97811.81;;;12.36;63.38
60820;BME280;46641;48.904;9.126;2024-03-25T01:51:20;97807.09;;;12.32;62.42
60820;BME280;46641;48.904;9.126;2024-03-25T01:56:13;97817.75;;;12.30;62.93
60820;BME280;46641;48.904;9.126;2024-03-25T02:01:05;97817.81;;;12.22;62.24
60820;BME280;46641;48.904;9.126;2024-03-25T02:06:00;97817.16;;;12.20;63.13
60820;BME280;46641;48.904;9.126;2024-03-25T02:10:51;97820.59;;;12.21;61.92
60820;BME280;46641;48.904;9.126;2024-03-25T02:15:43;97823.88;;;12.23;64.38
60820;BME280;46641;48.904;9.126;2024-03-25T02:20:33;97820.56;;;12.29;64.10
60820;BME280;46641;48.904;9.126;2024-03-25T02:25:24;97831.53;;;12.32;63.82
60820;BME280;46641;48.904;9.126;2024-03-25T02:30:14;97820.84;;;12.34;64.36
60820;BME280;46641;48.904;9.126;2024-03-25T02:35:10;97815.44;;;12.35;63.72
60820;BME280;46641;48.904;9.126;2024-03-25T02:40:02;97818.88;;;12.36;63.80
60820;BME280;46641;48.904;9.126;2024-03-25T02:44:58;97807.09;;;12.32;62.84
60820;BME280;46641;48.904;9.126;2024-03-25T02:49:48;97814.31;;;12.30;63.16
60820;BME280;46641;48.904;9.126;2024-03-25T02:54:39;97820.56;;;12.29;63.39
60820;BME280;46641;48.904;9.126;2024-03-25T02:59:29;97814.47;;;12.28;62.75
60820;BME280;46641;48.904;9.126;2024-03-25T03:04:19;97823.34;;;12.27;62.50
60820;BME280;46641;48.904;9.126;2024-03-25T03:09:10;97813.19;;;12.24;62.62
60820;BME280;46641;48.904;9.126;2024-03-25T03:14:00;97818.78;;;12.21;63.38
60820;BME280;46641;48.904;9.126;2024-03-25T03:18:50;97813.53;;;12.21;63.27
60820;BME280;46641;48.904;9.126;2024-03-25T03:23:40;97808.13;;;12.23;63.82
60820;BME280;46641;48.904;9.126;2024-03-25T03:28:31;97808.75;;;12.25;64.01
60820;BME280;46641;48.904;9.126;2024-03-25T03:33:21;97805.97;;;12.26;63.91
60820;BME280;46641;48.904;9.126;2024-03-25T03:38:11;97803.16;;;12.28;63.94
60820;BME280;46641;48.904;9.126;2024-03-25T03:43:01;97795.75;;;12.31;64.40
60820;BME280;46641;48.904;9.126;2024-03-25T03:47:52;97810.53;;;12.32;64.11
60820;BME280;46641;48.904;9.126;2024-03-25T03:52:42;97807.72;;;12.34;64.45
60820;BME280;46641;48.904;9.126;2024-03-25T03:57:33;97805.75;;;12.36;64.07
60820;BME280;46641;48.904;9.126;2024-03-25T04:02:23;97806.91;;;12.33;64.15
60820;BME280;46641;48.904;9.126;2024-03-25T04:07:13;97818.22;;;12.34;63.27
60820;BME280;46641;48.904;9.126;2024-03-25T04:12:04;97818.09;;;12.27;63.63
60820;BME280;46641;48.904;9.126;2024-03-25T04:16:56;97821.72;;;12.26;64.23
60820;BME280;46641;48.904;9.126;2024-03-25T04:21:46;97814.66;;;12.27;64.25
60820;BME280;46641;48.904;9.126;2024-03-25T04:26:36;97805.16;;;12.26;64.69
60820;BME280;46641;48.904;9.126;2024-03-25T04:31:26;97807.78;;;12.26;64.85
60820;BME280;46641;48.904;9.126;2024-03-25T04:36:17;97805.16;;;12.26;64.50
60820;BME280;46641;48.904;9.126;2024-03-25T04:41:07;97801.09;;;12.23;64.04
60820;BME280;46641;48.904;9.126;2024-03-25T04:46:00;97803.25;;;12.20;63.44
60820;BME280;46641;48.904;9.126;2024-03-25T04:50:51;97806.84;;;12.19;64.53
60820;BME280;46641;48.904;9.126;2024-03-25T04:55:41;97807.50;;;12.21;64.74
60820;BME280;46641;48.904;9.126;2024-03-25T05:00:31;97830.75;;;12.24;64.59
60820;BME280;46641;48.904;9.126;2024-03-25T05:05:21;97820.91;;;12.26;64.98
60820;BME280;46641;48.904;9.126;2024-03-25T05:10:14;97818.91;;;12.28;64.86
60820;BME280;46641;48.904;9.126;2024-03-25T05:15:04;97824.34;;;12.26;64.99
60820;BME280;46641;48.904;9.126;2024-03-25T05:19:56;97831.41;;;12.26;65.16
60820;BME280;46641;48.904;9.126;2024-03-25T05:24:46;97840.09;;;12.26;65.01
60820;BME280;46641;48.904;9.126;2024-03-25T05:29:36;97836.66;;;12.26;65.23
60820;BME280;46641;48.904;9.126;2024-03-25T05:34:27;97834.19;;;12.24;64.95
60820;BME280;46641;48.904;9.126;2024-03-25T05:39:18;97842.06;;;12.24;64.93
60820;BME280;46641;48.904;9.126;2024-03-25T05:44:09;97848.31;;;12.23;64.87
60820;BME280;46641;48.904;9.126;2024-03-25T05:49:03;97846.69;;;12.22;64.68
60820;BME280;46641;48.904;9.126;2024-03-25T05:53:53;97846.69;;;12.22;64.95
60820;BME280;46641;48.904;9.126;2024-03-25T05:58:44;97847.03;;;12.19;64.56
60820;BME280;46641;48.904;9.126;2024-03-25T06:03:34;97848.19;;;12.16;65.25
60820;BME280;46641;48.904;9.126;2024-03-25T06:08:24;97845.72;;;12.15;64.92
60820;BME280;46641;48.904;9.126;2024-03-25T06:13:14;97851.16;;;12.13;65.08
60820;BME280;46641;48.904;9.126;2024-03-25T06:18:05;97852.16;;;12.12;65.12
60820;BME280;46641;48.904;9.126;2024-03-25T06:22:55;97853.78;;;12.13;65.04
60820;BME280;46641;48.904;9.126;2024-03-25T06:27:46;97859.03;;;12.13;65.41
60820;BME280;46641;48.904;9.126;2024-03-25T06:32:36;97846.06;;;12.12;65.12
60820;BME280;46641;48.904;9.126;2024-03-25T06:37:45;97853.13;;;12.11;65.12
60820;BME280;46641;48.904;9.126;2024-03-25T06:42:35;97849.53;;;12.12;64.99
60820;BME280;46641;48.904;9.126;2024-03-25T06:47:25;97851.31;;;12.12;64.94
60820;BME280;46641;48.904;9.126;2024-03-25T06:52:16;97861.00;;;12.11;64.89
60820;BME280;46641;48.904;9.126;2024-03-25T06:57:06;97866.25;;;12.11;65.07
60820;BME280;46641;48.904;9.126;2024-03-25T07:01:56;97868.84;;;12.11;65.22
60820;BME280;46641;48.904;9.126;2024-03-25T07:06:46;97870.66;;;12.11;65.02
60820;BME280;46641;48.904;9.126;2024-03-25T07:11:36;97876.72;;;12.11;64.83
60820;BME280;46641;48.904;9.126;2024-03-25T07:16:27;97878.38;;;12.12;64.49
60820;BME280;46641;48.904;9.126;2024-03-25T07:21:18;97873.47;;;12.09;63.98
60820;BME280;46641;48.904;9.126;2024-03-25T07:26:08;97872.47;;;12.10;63.98
60820;BME280;46641;48.904;9.126;2024-03-25T07:30:58;97871.00;;;12.08;64.09
60820;BME280;46641;48.904;9.126;2024-03-25T07:35:48;97864.97;;;12.07;64.46
60820;BME280;46641;48.904;9.126;2024-03-25T07:40:39;97851.50;;;12.10;63.44
60820;BME280;46641;48.904;9.126;2024-03-25T07:45:29;97860.72;;;12.06;63.85
60820;BME280;46641;48.904;9.126;2024-03-25T07:50:19;97858.09;;;12.06;64.09
60820;BME280;46641;48.904;9.126;2024-03-25T07:55:10;97851.66;;;12.09;63.70
60820;BME280;46641;48.904;9.126;2024-03-25T08:00:00;97855.59;;;12.13;63.89
60820;BME280;46641;48.904;9.126;2024-03-25T08:04:50;97867.53;;;12.15;64.09
60820;BME280;46641;48.904;9.126;2024-03-25T08:09:41;97861.94;;;12.19;63.84
60820;BME280;46641;48.904;9.126;2024-03-25T08:14:31;97862.75;;;12.19;64.03
60820;BME280;46641;48.904;9.126;2024-03-25T08:19:21;97866.81;;;12.22;63.42
60820;BME280;46641;48.904;9.126;2024-03-25T08:24:14;97863.03;;;12.24;63.65
60820;BME280;46641;48.904;9.126;2024-03-25T08:29:04;97855.03;;;12.26;63.71
60820;BME280;46641;48.904;9.126;2024-03-25T08:33:54;97848.22;;;12.31;63.28
60820;BME280;46641;48.904;9.126;2024-03-25T08:38:44;97830.50;;;12.33;63.33
60820;BME280;46641;48.904;9.126;2024-03-25T08:43:35;97830.72;;;12.32;62.66
60820;BME280;46641;48.904;9.126;2024-03-25T08:48:25;97840.19;;;12.33;62.77
60820;BME280;46641;48.904;9.126;2024-03-25T08:53:15;97839.84;;;12.36;63.28
60820;BME280;46641;48.904;9.126;2024-03-25T08:58:05;97831.91;;;12.44;63.14
60820;BME280;46641;48.904;9.126;2024-03-25T09:02:56;97823.63;;;12.55;63.29
60820;BME280;46641;48.904;9.126;2024-03-25T09:07:49;97822.84;;;12.70;63.46
60820;BME280;46641;48.904;9.126;2024-03-25T09:12:41;97817.97;;;12.81;63.29
60820;BME280;46641;48.904;9.126;2024-03-25T09:17:32;97812.63;;;12.90;63.52
60820;BME280;46641;48.904;9.126;2024-03-25T09:22:22;97810.94;;;12.97;62.81
60820;BME280;46641;48.904;9.126;2024-03-25T09:27:13;97813.66;;;13.03;63.09
60820;BME280;46641;48.904;9.126;2024-03-25T09:32:04;97806.03;;;13.08;64.01
60820;BME280;46641;48.904;9.126;2024-03-25T09:36:54;97794.09;;;13.21;64.06
60820;BME280;46641;48.904;9.126;2024-03-25T09:41:45;97784.16;;;13.31;64.41
60820;BME280;46641;48.904;9.126;2024-03-25T09:46:37;97778.81;;;13.39;64.79
60820;BME280;46641;48.904;9.126;2024-03-25T09:51:27;97772.25;;;13.50;64.09
60820;BME280;46641;48.904;9.126;2024-03-25T09:56:18;97767.50;;;13.60;65.28
60820;BME280;46641;48.904;9.126;2024-03-25T10:01:08;97753.50;;;13.74;64.99
60820;BME280;46641;48.904;9.126;2024-03-25T10:05:58;97749.81;;;13.90;64.59
60820;BME280;46641;48.904;9.126;2024-03-25T10:10:49;97746.94;;;14.07;64.27
60820;BME280;46641;48.904;9.126;2024-03-25T10:15:40;97733.91;;;14.20;61.19
60820;BME280;46641;48.904;9.126;2024-03-25T10:20:31;97726.47;;;14.23;62.92
60820;BME280;46641;48.904;9.126;2024-03-25T10:25:28;97712.81;;;14.41;62.23
60820;BME280;46641;48.904;9.126;2024-03-25T10:30:19;97706.66;;;14.56;64.00
60820;BME280;46641;48.904;9.126;2024-03-25T10:35:09;97709.84;;;14.72;64.95
60820;BME280;46641;48.904;9.126;2024-03-25T10:40:01;97701.38;;;14.84;65.06
60820;BME280;46641;48.904;9.126;2024-03-25T10:44:52;97694.59;;;15.03;64.99
60820;BME280;46641;48.904;9.126;2024-03-25T10:49:49;97684.13;;;15.23;64.49
60820;BME280;46641;48.904;9.126;2024-03-25T10:54:41;97675.22;;;15.37;65.09
60820;BME280;46641;48.904;9.126;2024-03-25T10:59:33;97680.97;;;15.54;65.36
60820;BME280;46641;48.904;9.126;2024-03-25T11:04:28;97672.91;;;15.69;65.12
60820;BME280;46641;48.904;9.126;2024-03-25T11:09:25;97660.53;;;15.82;64.97
60820;BME280;46641;48.904;9.126;2024-03-25T11:14:18;97657.50;;;15.99;65.35
60820;BME280;46641;48.904;9.126;2024-03-25T11:19:10;97646.75;;;16.13;65.24
60820;BME280;46641;48.904;9.126;2024-03-25T11:24:07;97639.22;;;16.30;64.29
60820;BME280;46641;48.904;9.126;2024-03-25T11:28:58;97631.06;;;16.45;64.59
60820;BME280;46641;48.904;9.126;2024-03-25T11:33:48;97618.84;;;16.57;65.20
60820;BME280;46641;48.904;9.126;2024-03-25T11:38:38;97611.88;;;16.70;64.43
60820;BME280;46641;48.904;9.126;2024-03-25T11:43:32;97597.25;;;16.74;64.18
60820;BME280;46641;48.904;9.126;2024-03-25T11:48:23;97599.91;;;16.80;64.28
60820;BME280;46641;48.904;9.126;2024-03-25T11:53:14;97577.06;;;16.93;63.92
60820;BME280;46641;48.904;9.126;2024-03-25T11:58:04;97562.16;;;17.05;64.54
60820;BME280;46641;48.904;9.126;2024-03-25T12:02:55;97556.38;;;17.21;64.05
60820;BME280;46641;48.904;9.126;2024-03-25T12:07:45;97555.88;;;17.31;63.26
60820;BME280;46641;48.904;9.126;2024-03-25T12:12:36;97549.13;;;17.35;62.85
60820;BME280;46641;48.904;9.126;2024-03-25T12:17:29;97544.22;;;17.45;63.34
60820;BME280;46641;48.904;9.126;2024-03-25T12:22:19;97531.06;;;17.57;62.59
60820;BME280;46641;48.904;9.126;2024-03-25T12:27:09;97520.66;;;17.62;63.30
60820;BME280;46641;48.904;9.126;2024-03-25T12:32:00;97516.91;;;17.70;62.69
60820;BME280;46641;48.904;9.126;2024-03-25T12:36:51;97501.75;;;17.84;63.27
60820;BME280;46641;48.904;9.126;2024-03-25T12:41:42;97484.13;;;17.96;63.74
60820;BME280;46641;48.904;9.126;2024-03-25T12:46:32;97468.41;;;18.01;61.52
60820;BME280;46641;48.904;9.126;2024-03-25T12:51:23;97464.72;;;18.02;60.88
60820;BME280;46641;48.904;9.126;2024-03-25T12:56:13;97464.50;;;18.04;61.69
60820;BME280;46641;48.904;9.126;2024-03-25T13:01:03;97448.63;;;18.04;61.77
60820;BME280;46641;48.904;9.126;2024-03-25T13:05:54;97445.13;;;18.03;63.06
60820;BME280;46641;48.904;9.126;2024-03-25T13:10:44;97430.56;;;18.12;63.45
60820;BME280;46641;48.904;9.126;2024-03-25T13:15:35;97431.28;;;18.19;64.03
60820;BME280;46641;48.904;9.126;2024-03-25T13:20:25;97426.75;;;18.27;64.03
60820;BME280;46641;48.904;9.126;2024-03-25T13:25:15;97418.13;;;18.31;62.31
60820;BME280;46641;48.904;9.126;2024-03-25T13:30:06;97412.72;;;18.38;63.57
60820;BME280;46641;48.904;9.126;2024-03-25T13:34:56;97400.00;;;18.47;63.06
60820;BME280;46641;48.904;9.126;2024-03-25T13:39:47;97384.91;;;18.47;62.37
60820;BME280;46641;48.904;9.126;2024-03-25T13:44:39;97381.19;;;18.48;61.06
60820;BME280;46641;48.904;9.126;2024-03-25T13:49:30;97378.00;;;18.46;62.55
60820;BME280;46641;48.904;9.126;2024-03-25T13:54:20;97355.16;;;18.45;62.58
60820;BME280;46641;48.904;9.126;2024-03-25T13:59:10;97345.75;;;18.49;61.36
60820;BME280;46641;48.904;9.126;2024-03-25T14:04:00;97338.59;;;18.50;60.75
60820;BME280;46641;48.904;9.126;2024-03-25T14:08:51;97337.56;;;18.51;60.93
60820;BME280;46641;48.904;9.126;2024-03-25T14:13:41;97332.00;;;18.52;60.52
60820;BME280;46641;48.904;9.126;2024-03-25T14:18:31;97313.47;;;18.52;58.03
60820;BME280;46641;48.904;9.126;2024-03-25T14:23:22;97303.81;;;18.46;57.98
60820;BME280;46641;48.904;9.126;2024-03-25T14:28:12;97289.50;;;18.47;58.50
60820;BME280;46641;48.904;9.126;2024-03-25T14:33:02;97274.53;;;18.41;58.81
60820;BME280;46641;48.904;9.126;2024-03-25T14:37:53;97270.38;;;18.45;57.17
60820;BME280;46641;48.904;9.126;2024-03-25T14:42:43;97258.88;;;18.39;58.02
60820;BME280;46641;48.904;9.126;2024-03-25T14:47:34;97250.69;;;18.41;59.39
60820;BME280;46641;48.904;9.126;2024-03-25T14:52:24;97243.31;;;18.43;57.67
60820;BME280;46641;48.904;9.126;2024-03-25T14:57:14;97237.78;;;18.44;59.00
60820;BME280;46641;48.904;9.126;2024-03-25T15:02:05;97222.69;;;18.45;57.98
60820;BME280;46641;48.904;9.126;2024-03-25T15:06:56;97214.63;;;18.40;56.43
60820;BME280;46641;48.904;9.126;2024-03-25T15:11:47;97215.19;;;18.42;59.03
60820;BME280;46641;48.904;9.126;2024-03-25T15:16:38;97205.88;;;18.39;57.75
60820;BME280;46641;48.904;9.126;2024-03-25T15:21:28;97198.75;;;18.40;57.18
60820;BME280;46641;48.904;9.126;2024-03-25T15:26:18;97192.84;;;18.38;57.41
60820;BME280;46641;48.904;9.126;2024-03-25T15:31:09;97190.44;;;18.36;58.41
60820;BME280;46641;48.904;9.126;2024-03-25T15:35:59;97179.97;;;18.30;56.99
60820;BME280;46641;48.904;9.126;2024-03-25T15:40:50;97168.31;;;18.31;55.85
60820;BME280;46641;48.904;9.126;2024-03-25T15:45:42;97166.13;;;18.28;57.90
60820;BME280;46641;48.904;9.126;2024-03-25T15:50:32;97153.09;;;18.26;57.58
60820;BME280;46641;48.904;9.126;2024-03-25T15:55:23;97153.09;;;18.26;56.63
60820;BME280;46641;48.904;9.126;2024-03-25T16:00:13;97141.16;;;18.24;57.77
60820;BME280;46641;48.904;9.126;2024-03-25T16:05:04;97145.06;;;18.21;57.30
60820;BME280;46641;48.904;9.126;2024-03-25T16:09:54;97141.81;;;18.19;57.23
60820;BME280;46641;48.904;9.126;2024-03-25T16:14:45;97140.09;;;18.13;57.39
60820;BME280;46641;48.904;9.126;2024-03-25T16:19:35;97123.66;;;18.11;56.88
60820;BME280;46641;48.904;9.126;2024-03-25T16:24:25;97126.50;;;18.09;56.70
60820;BME280;46641;48.904;9.126;2024-03-25T16:29:16;97115.56;;;18.06;55.45
60820;BME280;46641;48.904;9.126;2024-03-25T16:34:06;97110.63;;;17.97;56.34
60820;BME280;46641;48.904;9.126;2024-03-25T16:38:56;97096.81;;;17.95;56.06
60820;BME280;46641;48.904;9.126;2024-03-25T16:43:46;97095.19;;;17.83;55.93
60820;BME280;46641;48.904;9.126;2024-03-25T16:48:36;97085.63;;;17.82;54.21
60820;BME280;46641;48.904;9.126;2024-03-25T16:53:27;97078.00;;;17.73;56.32
60820;BME280;46641;48.904;9.126;2024-03-25T16:58:17;97081.09;;;17.70;55.51
60820;BME280;46641;48.904;9.126;2024-03-25T17:03:07;97080.97;;;17.65;56.46
60820;BME280;46641;48.904;9.126;2024-03-25T17:07:57;97079.13;;;17.66;56.22
60820;BME280;46641;48.904;9.126;2024-03-25T17:12:48;97082.25;;;17.63;55.59
60820;BME280;46641;48.904;9.126;2024-03-25T17:17:39;97077.84;;;17.57;53.11
60820;BME280;46641;48.904;9.126;2024-03-25T17:22:29;97077.50;;;17.53;55.82
60820;BME280;46641;48.904;9.126;2024-03-25T17:27:20;97084.84;;;17.51;55.51
60820;BME280;46641;48.904;9.126;2024-03-25T17:32:10;97082.91;;;17.46;54.86
60820;BME280;46641;48.904;9.126;2024-03-25T17:37:00;97082.53;;;17.43;56.24
60820;BME280;46641;48.904;9.126;2024-03-25T17:41:51;97077.72;;;17.40;56.46
60820;BME280;46641;48.904;9.126;2024-03-25T17:46:41;97078.97;;;17.37;56.26
60820;BME280;46641;48.904;9.126;2024-03-25T17:51:31;97081.25;;;17.34;55.98
60820;BME280;46641;48.904;9.126;2024-03-25T17:56:22;97071.13;;;17.31;55.87
60820;BME280;46641;48.904;9.126;2024-03-25T18:01:12;97066.28;;;17.27;55.56
60820;BME280;46641;48.904;9.126;2024-03-25T18:06:03;97071.22;;;17.24;56.28
60820;BME280;46641;48.904;9.126;2024-03-25T18:10:53;97059.25;;;17.21;55.50
60820;BME280;46641;48.904;9.126;2024-03-25T18:15:46;97054.19;;;17.20;54.59
60820;BME280;46641;48.904;9.126;2024-03-25T18:20:37;97063.97;;;17.19;55.74
60820;BME280;46641;48.904;9.126;2024-03-25T18:25:27;97063.38;;;17.17;54.58
60820;BME280;46641;48.904;9.126;2024-03-25T18:30:17;97059.34;;;17.15;55.69
60820;BME280;46641;48.904;9.126;2024-03-25T18:35:08;97056.13;;;17.13;54.29
60820;BME280;46641;48.904;9.126;2024-03-25T18:39:58;97046.47;;;17.07;55.18
60820;BME280;46641;48.904;9.126;2024-03-25T18:44:48;97043.66;;;17.01;55.00
60820;BME280;46641;48.904;9.126;2024-03-25T18:49:38;97039.63;;;16.99;55.41
60820;BME280;46641;48.904;9.126;2024-03-25T18:54:29;97032.59;;;16.93;55.25
60820;BME280;46641;48.904;9.126;2024-03-25T18:59:19;97029.03;;;16.87;54.86
60820;BME280;46641;48.904;9.126;2024-03-25T19:04:09;97030.13;;;16.79;54.33
60820;BME280;46641;48.904;9.126;2024-03-25T19:08:59;97028.34;;;16.73;55.60
60820;BME280;46641;48.904;9.126;2024-03-25T19:13:50;97023.97;;;16.67;55.36
60820;BME280;46641;48.904;9.126;2024-03-25T19:18:40;97021.63;;;16.59;55.68
60820;BME280;46641;48.904;9.126;2024-03-25T19:23:30;97022.53;;;16.53;55.87
60820;BME280;46641;48.904;9.126;2024-03-25T19:28:21;97025.25;;;16.46;55.62
60820;BME280;46641;48.904;9.126;2024-03-25T19:33:12;97019.25;;;16.39;56.21
60820;BME280;46641;48.904;9.126;2024-03-25T19:38:02;97008.75;;;16.32;55.88
60820;BME280;46641;48.904;9.126;2024-03-25T19:42:53;97013.31;;;16.25;56.33
60820;BME280;46641;48.904;9.126;2024-03-25T19:47:44;96993.88;;;16.20;56.01
60820;BME280;46641;48.904;9.126;2024-03-25T19:52:34;96994.75;;;16.13;55.16
60820;BME280;46641;48.904;9.126;2024-03-25T19:57:24;96988.16;;;16.04;55.70
60820;BME280;46641;48.904;9.126;2024-03-25T20:02:15;96984.53;;;15.99;55.42
60820;BME280;46641;48.904;9.126;2024-03-25T20:07:05;96979.34;;;15.92;55.50
60820;BME280;46641;48.904;9.126;2024-03-25T20:11:57;96980.00;;;15.87;55.88
60820;BME280;46641;48.904;9.126;2024-03-25T20:16:47;96975.59;;;15.81;56.14
60820;BME280;46641;48.904;9.126;2024-03-25T20:21:37;96974.63;;;15.76;55.88
60820;BME280;46641;48.904;9.126;2024-03-25T20:26:31;96970.03;;;15.71;56.16
60820;BME280;46641;48.904;9.126;2024-03-25T20:31:22;96965.41;;;15.67;56.85
60820;BME280;46641;48.904;9.126;2024-03-25T20:36:12;96967.41;;;15.64;56.91
60820;BME280;46641;48.904;9.126;2024-03-25T20:41:02;96959.94;;;15.61;56.54
60820;BME280;46641;48.904;9.126;2024-03-25T20:45:53;96951.06;;;15.56;56.94
60820;BME280;46641;48.904;9.126;2024-03-25T20:50:43;96943.38;;;15.54;57.32
60820;BME280;46641;48.904;9.126;2024-03-25T20:55:33;96943.59;;;15.53;57.58
60820;BME280;46641;48.904;9.126;2024-03-25T21:00:24;96928.00;;;15.51;57.72
60820;BME280;46641;48.904;9.126;2024-03-25T21:05:15;96930.03;;;15.49;57.81
60820;BME280;46641;48.904;9.126;2024-03-25T21:10:05;96926.59;;;15.49;57.77
60820;BME280;46641;48.904;9.126;2024-03-25T21:14:56;96923.34;;;15.47;58.16
60820;BME280;46641;48.904;9.126;2024-03-25T21:19:46;96924.03;;;15.42;58.39
60820;BME280;46641;48.904;9.126;2024-03-25T21:24:36;96919.41;;;15.37;58.56
60820;BME280;46641;48.904;9.126;2024-03-25T21:29:26;96929.94;;;15.37;58.58
60820;BME280;46641;48.904;9.126;2024-03-25T21:34:17;96914.78;;;15.33;58.61
60820;BME280;46641;48.904;9.126;2024-03-25T21:39:07;96916.00;;;15.30;58.74
60820;BME280;46641;48.904;9.126;2024-03-25T21:43:58;96919.31;;;15.26;58.82
60820;BME280;46641;48.904;9.126;2024-03-25T21:48:48;96910.00;;;15.23;58.83
60820;BME280;46641;48.904;9.126;2024-03-25T21:53:38;96906.38;;;15.17;59.04
60820;BME280;46641;48.904;9.126;2024-03-25T21:58:29;96906.00;;;15.14;59.17
60820;BME280;46641;48.904;9.126;2024-03-25T22:03:19;96903.22;;;15.09;59.20
60820;BME280;46641;48.904;9.126;2024-03-25T22:08:09;96896.78;;;15.05;59.46
60820;BME280;46641;48.904;9.126;2024-03-25T22:13:00;96886.88;;;15.00;59.12
60820;BME280;46641;48.904;9.126;2024-03-25T22:17:54;96875.38;;;14.94;59.29
60820;BME280;46641;48.904;9.126;2024-03-25T22:22:48;96864.47;;;14.91;58.70
60820;BME280;46641;48.904;9.126;2024-03-25T22:27:38;96862.47;;;14.86;59.17
60820;BME280;46641;48.904;9.126;2024-03-25T22:32:29;96863.34;;;14.80;59.38
60820;BME280;46641;48.904;9.126;2024-03-25T22:37:19;96855.06;;;14.77;59.41
60820;BME280;46641;48.904;9.126;2024-03-25T22:42:09;96851.44;;;14.71;59.51
60820;BME280;46641;48.904;9.126;2024-03-25T22:46:59;96847.84;;;14.65;58.73
60820;BME280;46641;48.904;9.126;2024-03-25T22:51:50;96853.75;;;14.61;59.36
60820;BME280;46641;48.904;9.126;2024-03-25T22:56:40;96852.59;;;14.57;59.42
60820;BME280;46641;48.904;9.126;2024-03-25T23:01:30;96861.47;;;14.56;59.82
60820;BME280;46641;48.904;9.126;2024-03-25T23:06:20;96856.88;;;14.51;59.85
60820;BME280;46641;48.904;9.126;2024-03-25T23:11:12;96858.84;;;14.49;59.60
60820;BME280;46641;48.904;9.126;2024-03-25T23:16:03;96843.72;;;14.44;59.64
60820;BME280;46641;48.904;9.126;2024-03-25T23:20:53;96834.63;;;14.40;59.22
60820;BME280;46641;48.904;9.126;2024-03-25T23:25:45;96835.06;;;14.37;59.66
60820;BME280;46641;48.904;9.126;2024-03-25T23:30:36;96824.97;;;14.34;59.57
60820;BME280;46641;48.904;9.126;2024-03-25T23:35:27;96830.84;;;14.30;59.03
60820;BME280;46641;48.904;9.126;2024-03-25T23:40:17;96818.34;;;14.25;58.69
60820;BME280;46641;48.904;9.126;2024-03-25T23:45:08;96823.66;;;14.18;59.25
60820;BME280;46641;48.904;9.126;2024-03-25T23:49:59;96819.59;;;14.16;59.21
60820;BME280;46641;48.904;9.126;2024-03-25T23:54:49;96810.91;;;14.15;59.19
60820;BME280;46641;48.904;9.126;2024-03-25T23:59:39;96804.47;;;14.11;59.48
